sensor_id;sensor_type;location;lat;lon;timestamp;temperature;humidity
12223;DHT22;6174;49.058;8.524;2022-08-19T00:05:30;21.80;99.90
12223;DHT22;6174;49.058;8.524;2022-08-19T00:08:48;21.70;99.90
12223;DHT22;6174;49.058;8.524;2022-08-19T00:15:20;21.70;99.90
12223;DHT22;6174;49.058;8.524;2022-08-19T00:18:24;21.60;99.90
12223;DHT22;6174;49.058;8.524;2022-08-19T00:24:36;21.50;99.90
12223;DHT22;6174;49.058;8.524;2022-08-19T00:38:20;22.10;99.90
12223;DHT22;6174;49.058;8.524;2022-08-19T00:45:18;21.50;99.90
12223;DHT22;6174;49.058;8.524;2022-08-19T01:12:08;21.50;99.90
12223;DHT22;6174;49.058;8.524;2022-08-19T01:14:36;21.50;99.90
12223;DHT22;6174;49.058;8.524;2022-08-19T01:17:04;21.50;99.90
12223;DHT22;6174;49.058;8.524;2022-08-19T01:19:36;21.40;99.90
12223;DHT22;6174;49.058;8.524;2022-08-19T01:22:06;21.40;99.90
12223;DHT22;6174;49.058;8.524;2022-08-19T01:34:57;21.50;99.90
12223;DHT22;6174;49.058;8.524;2022-08-19T01:37:27;21.50;99.90
12223;DHT22;6174;49.058;8.524;2022-08-19T01:39:54;21.50;99.90
12223;DHT22;6174;49.058;8.524;2022-08-19T01:42:21;21.50;99.90
12223;DHT22;6174;49.058;8.524;2022-08-19T01:44:48;21.50;99.90
12223;DHT22;6174;49.058;8.524;2022-08-19T01:47:15;21.50;99.90
12223;DHT22;6174;49.058;8.524;2022-08-19T01:49:42;21.50;99.90
12223;DHT22;6174;49.058;8.524;2022-08-19T01:52:10;21.50;99.90
12223;DHT22;6174;49.058;8.524;2022-08-19T01:54:37;21.50;99.90
12223;DHT22;6174;49.058;8.524;2022-08-19T01:57:08;21.50;99.90
12223;DHT22;6174;49.058;8.524;2022-08-19T01:59:35;21.60;99.90
12223;DHT22;6174;49.058;8.524;2022-08-19T02:02:03;21.50;99.90
12223;DHT22;6174;49.058;8.524;2022-08-19T02:04:33;21.50;99.90
12223;DHT22;6174;49.058;8.524;2022-08-19T02:07:00;21.50;99.90
12223;DHT22;6174;49.058;8.524;2022-08-19T02:09:28;21.40;99.90
12223;DHT22;6174;49.058;8.524;2022-08-19T02:11:55;21.30;99.90
12223;DHT22;6174;49.058;8.524;2022-08-19T02:14:21;21.30;99.90
12223;DHT22;6174;49.058;8.524;2022-08-19T02:16:48;21.30;99.90
12223;DHT22;6174;49.058;8.524;2022-08-19T02:19:15;21.40;99.90
12223;DHT22;6174;49.058;8.524;2022-08-19T02:21:42;21.40;99.90
12223;DHT22;6174;49.058;8.524;2022-08-19T02:24:10;21.30;99.90
12223;DHT22;6174;49.058;8.524;2022-08-19T02:26:39;21.30;99.90
12223;DHT22;6174;49.058;8.524;2022-08-19T02:29:05;21.30;99.90
12223;DHT22;6174;49.058;8.524;2022-08-19T02:31:32;21.30;99.90
12223;DHT22;6174;49.058;8.524;2022-08-19T02:33:59;21.30;99.90
12223;DHT22;6174;49.058;8.524;2022-08-19T02:36:27;21.30;99.90
12223;DHT22;6174;49.058;8.524;2022-08-19T02:38:53;21.30;99.90
12223;DHT22;6174;49.058;8.524;2022-08-19T02:41:21;21.30;99.90
12223;DHT22;6174;49.058;8.524;2022-08-19T02:43:50;21.30;99.90
12223;DHT22;6174;49.058;8.524;2022-08-19T02:46:19;21.30;99.90
12223;DHT22;6174;49.058;8.524;2022-08-19T02:48:47;21.40;99.90
12223;DHT22;6174;49.058;8.524;2022-08-19T02:51:18;21.30;99.90
12223;DHT22;6174;49.058;8.524;2022-08-19T02:53:45;21.40;99.90
12223;DHT22;6174;49.058;8.524;2022-08-19T02:56:12;21.40;99.90
12223;DHT22;6174;49.058;8.524;2022-08-19T02:58:40;21.40;99.90
12223;DHT22;6174;49.058;8.524;2022-08-19T03:01:10;21.30;99.90
12223;DHT22;6174;49.058;8.524;2022-08-19T03:03:38;21.40;99.90
12223;DHT22;6174;49.058;8.524;2022-08-19T03:06:07;21.30;99.90
12223;DHT22;6174;49.058;8.524;2022-08-19T03:08:35;21.40;99.90
12223;DHT22;6174;49.058;8.524;2022-08-19T03:11:03;21.40;99.90
12223;DHT22;6174;49.058;8.524;2022-08-19T03:13:29;21.40;99.90
12223;DHT22;6174;49.058;8.524;2022-08-19T03:15:56;21.40;99.90
12223;DHT22;6174;49.058;8.524;2022-08-19T03:18:25;21.30;99.90
12223;DHT22;6174;49.058;8.524;2022-08-19T03:20:52;21.30;99.90
12223;DHT22;6174;49.058;8.524;2022-08-19T03:23:20;21.30;99.90
12223;DHT22;6174;49.058;8.524;2022-08-19T03:25:49;21.20;99.90
12223;DHT22;6174;49.058;8.524;2022-08-19T03:28:16;21.20;99.90
12223;DHT22;6174;49.058;8.524;2022-08-19T03:30:55;21.30;99.90
12223;DHT22;6174;49.058;8.524;2022-08-19T03:33:23;21.30;99.90
12223;DHT22;6174;49.058;8.524;2022-08-19T03:36:02;21.30;99.90
12223;DHT22;6174;49.058;8.524;2022-08-19T03:38:29;21.20;99.90
12223;DHT22;6174;49.058;8.524;2022-08-19T03:40:56;21.20;99.90
12223;DHT22;6174;49.058;8.524;2022-08-19T03:43:23;21.20;99.90
12223;DHT22;6174;49.058;8.524;2022-08-19T03:45:59;21.20;99.90
12223;DHT22;6174;49.058;8.524;2022-08-19T03:48:26;21.30;99.90
12223;DHT22;6174;49.058;8.524;2022-08-19T03:50:55;21.10;99.90
12223;DHT22;6174;49.058;8.524;2022-08-19T03:53:24;21.10;99.90
12223;DHT22;6174;49.058;8.524;2022-08-19T03:55:52;21.10;99.90
12223;DHT22;6174;49.058;8.524;2022-08-19T03:58:19;21.10;99.90
12223;DHT22;6174;49.058;8.524;2022-08-19T04:00:46;21.00;99.90
12223;DHT22;6174;49.058;8.524;2022-08-19T04:03:13;21.10;99.90
12223;DHT22;6174;49.058;8.524;2022-08-19T04:05:40;21.00;99.90
12223;DHT22;6174;49.058;8.524;2022-08-19T04:08:07;21.00;99.90
12223;DHT22;6174;49.058;8.524;2022-08-19T04:10:37;21.00;99.90
12223;DHT22;6174;49.058;8.524;2022-08-19T04:13:04;21.00;99.90
12223;DHT22;6174;49.058;8.524;2022-08-19T04:15:32;21.00;99.90
12223;DHT22;6174;49.058;8.524;2022-08-19T04:18:05;21.00;99.90
12223;DHT22;6174;49.058;8.524;2022-08-19T04:20:33;21.00;99.90
12223;DHT22;6174;49.058;8.524;2022-08-19T04:22:59;21.00;99.90
12223;DHT22;6174;49.058;8.524;2022-08-19T04:25:26;21.00;99.90
12223;DHT22;6174;49.058;8.524;2022-08-19T04:27:54;20.90;99.90
12223;DHT22;6174;49.058;8.524;2022-08-19T04:30:21;20.90;99.90
12223;DHT22;6174;49.058;8.524;2022-08-19T04:32:48;20.90;99.90
12223;DHT22;6174;49.058;8.524;2022-08-19T04:35:15;20.90;99.90
12223;DHT22;6174;49.058;8.524;2022-08-19T04:37:42;20.90;99.90
12223;DHT22;6174;49.058;8.524;2022-08-19T04:40:10;21.00;99.90
12223;DHT22;6174;49.058;8.524;2022-08-19T04:42:58;21.00;99.90
12223;DHT22;6174;49.058;8.524;2022-08-19T04:45:26;21.00;99.90
12223;DHT22;6174;49.058;8.524;2022-08-19T04:47:55;21.00;99.90
12223;DHT22;6174;49.058;8.524;2022-08-19T04:50:22;21.00;99.90
12223;DHT22;6174;49.058;8.524;2022-08-19T04:52:50;21.00;99.90
12223;DHT22;6174;49.058;8.524;2022-08-19T04:55:17;21.00;99.90
12223;DHT22;6174;49.058;8.524;2022-08-19T04:57:44;21.00;99.90
12223;DHT22;6174;49.058;8.524;2022-08-19T05:00:13;21.00;99.90
12223;DHT22;6174;49.058;8.524;2022-08-19T05:02:40;21.00;99.90
12223;DHT22;6174;49.058;8.524;2022-08-19T05:05:07;21.00;99.90
12223;DHT22;6174;49.058;8.524;2022-08-19T05:07:34;21.00;99.90
12223;DHT22;6174;49.058;8.524;2022-08-19T05:10:02;21.00;99.90
12223;DHT22;6174;49.058;8.524;2022-08-19T05:12:29;21.00;99.90
12223;DHT22;6174;49.058;8.524;2022-08-19T05:14:57;21.00;99.90
12223;DHT22;6174;49.058;8.524;2022-08-19T05:17:26;21.00;99.90
12223;DHT22;6174;49.058;8.524;2022-08-19T05:19:53;21.00;99.90
12223;DHT22;6174;49.058;8.524;2022-08-19T05:22:38;21.00;99.90
12223;DHT22;6174;49.058;8.524;2022-08-19T05:25:08;21.00;99.90
12223;DHT22;6174;49.058;8.524;2022-08-19T05:27:35;21.10;99.90
12223;DHT22;6174;49.058;8.524;2022-08-19T05:30:03;21.10;99.90
12223;DHT22;6174;49.058;8.524;2022-08-19T05:32:32;21.10;99.90
12223;DHT22;6174;49.058;8.524;2022-08-19T05:34:59;21.10;99.90
12223;DHT22;6174;49.058;8.524;2022-08-19T05:37:25;21.10;99.90
12223;DHT22;6174;49.058;8.524;2022-08-19T05:39:53;21.10;99.90
12223;DHT22;6174;49.058;8.524;2022-08-19T05:42:21;21.20;99.90
12223;DHT22;6174;49.058;8.524;2022-08-19T05:44:49;21.20;99.90
12223;DHT22;6174;49.058;8.524;2022-08-19T05:47:16;21.20;99.90
12223;DHT22;6174;49.058;8.524;2022-08-19T05:49:46;21.20;99.90
12223;DHT22;6174;49.058;8.524;2022-08-19T05:52:15;21.20;99.90
12223;DHT22;6174;49.058;8.524;2022-08-19T05:54:42;21.20;99.90
12223;DHT22;6174;49.058;8.524;2022-08-19T05:57:10;21.30;99.90
12223;DHT22;6174;49.058;8.524;2022-08-19T05:59:37;21.30;99.90
12223;DHT22;6174;49.058;8.524;2022-08-19T06:02:04;21.20;99.90
12223;DHT22;6174;49.058;8.524;2022-08-19T06:04:31;21.20;99.90
12223;DHT22;6174;49.058;8.524;2022-08-19T06:07:00;21.30;99.90
12223;DHT22;6174;49.058;8.524;2022-08-19T06:09:28;21.30;99.90
12223;DHT22;6174;49.058;8.524;2022-08-19T06:11:56;21.30;99.90
12223;DHT22;6174;49.058;8.524;2022-08-19T06:14:29;21.30;99.90
12223;DHT22;6174;49.058;8.524;2022-08-19T06:16:57;21.30;99.90
12223;DHT22;6174;49.058;8.524;2022-08-19T06:19:25;21.30;99.90
12223;DHT22;6174;49.058;8.524;2022-08-19T06:21:56;21.20;99.90
12223;DHT22;6174;49.058;8.524;2022-08-19T06:24:27;21.20;99.90
12223;DHT22;6174;49.058;8.524;2022-08-19T06:26:56;21.20;99.90
12223;DHT22;6174;49.058;8.524;2022-08-19T06:29:24;21.20;99.90
12223;DHT22;6174;49.058;8.524;2022-08-19T06:31:53;21.20;99.90
12223;DHT22;6174;49.058;8.524;2022-08-19T06:34:21;21.20;99.90
12223;DHT22;6174;49.058;8.524;2022-08-19T06:36:50;21.20;99.90
12223;DHT22;6174;49.058;8.524;2022-08-19T06:39:20;21.30;99.90
12223;DHT22;6174;49.058;8.524;2022-08-19T06:41:50;21.30;99.90
12223;DHT22;6174;49.058;8.524;2022-08-19T06:44:17;21.30;99.90
12223;DHT22;6174;49.058;8.524;2022-08-19T06:46:44;21.40;99.90
12223;DHT22;6174;49.058;8.524;2022-08-19T06:49:11;21.40;99.90
12223;DHT22;6174;49.058;8.524;2022-08-19T06:51:40;21.40;99.90
12223;DHT22;6174;49.058;8.524;2022-08-19T06:54:08;21.40;99.90
12223;DHT22;6174;49.058;8.524;2022-08-19T06:56:35;21.50;99.90
12223;DHT22;6174;49.058;8.524;2022-08-19T06:59:06;21.50;99.90
12223;DHT22;6174;49.058;8.524;2022-08-19T07:01:35;21.50;99.90
12223;DHT22;6174;49.058;8.524;2022-08-19T07:04:03;21.60;99.90
12223;DHT22;6174;49.058;8.524;2022-08-19T07:06:30;21.60;99.90
12223;DHT22;6174;49.058;8.524;2022-08-19T07:08:57;21.70;99.90
12223;DHT22;6174;49.058;8.524;2022-08-19T07:11:25;21.70;99.90
12223;DHT22;6174;49.058;8.524;2022-08-19T07:13:52;21.70;99.90
12223;DHT22;6174;49.058;8.524;2022-08-19T07:16:21;21.70;99.90
12223;DHT22;6174;49.058;8.524;2022-08-19T07:18:48;21.80;99.90
12223;DHT22;6174;49.058;8.524;2022-08-19T07:21:17;21.90;99.90
12223;DHT22;6174;49.058;8.524;2022-08-19T07:23:44;21.90;99.90
12223;DHT22;6174;49.058;8.524;2022-08-19T07:26:13;21.90;99.50
12223;DHT22;6174;49.058;8.524;2022-08-19T07:28:41;22.10;98.50
12223;DHT22;6174;49.058;8.524;2022-08-19T07:31:10;22.00;97.70
12223;DHT22;6174;49.058;8.524;2022-08-19T07:33:39;22.10;97.90
12223;DHT22;6174;49.058;8.524;2022-08-19T07:36:10;22.10;97.80
12223;DHT22;6174;49.058;8.524;2022-08-19T07:38:40;22.20;98.10
12223;DHT22;6174;49.058;8.524;2022-08-19T07:41:08;22.20;97.80
12223;DHT22;6174;49.058;8.524;2022-08-19T07:43:36;22.20;98.00
12223;DHT22;6174;49.058;8.524;2022-08-19T07:46:03;22.30;97.20
12223;DHT22;6174;49.058;8.524;2022-08-19T07:48:30;22.30;97.10
12223;DHT22;6174;49.058;8.524;2022-08-19T07:51:02;22.40;96.70
12223;DHT22;6174;49.058;8.524;2022-08-19T07:53:30;22.40;97.00
12223;DHT22;6174;49.058;8.524;2022-08-19T07:55:58;22.40;96.90
12223;DHT22;6174;49.058;8.524;2022-08-19T07:58:31;22.40;97.00
12223;DHT22;6174;49.058;8.524;2022-08-19T08:00:59;22.40;97.30
12223;DHT22;6174;49.058;8.524;2022-08-19T08:03:27;22.50;97.10
12223;DHT22;6174;49.058;8.524;2022-08-19T08:06:10;22.50;96.90
12223;DHT22;6174;49.058;8.524;2022-08-19T08:08:54;22.40;96.80
12223;DHT22;6174;49.058;8.524;2022-08-19T08:11:45;22.50;96.40
12223;DHT22;6174;49.058;8.524;2022-08-19T08:14:15;22.50;97.00
12223;DHT22;6174;49.058;8.524;2022-08-19T08:16:42;22.60;96.30
12223;DHT22;6174;49.058;8.524;2022-08-19T08:19:11;22.70;96.40
12223;DHT22;6174;49.058;8.524;2022-08-19T08:21:42;22.70;95.60
12223;DHT22;6174;49.058;8.524;2022-08-19T08:24:09;22.80;95.60
12223;DHT22;6174;49.058;8.524;2022-08-19T08:26:36;22.90;95.10
12223;DHT22;6174;49.058;8.524;2022-08-19T08:29:04;22.90;95.30
12223;DHT22;6174;49.058;8.524;2022-08-19T08:31:33;23.00;95.40
12223;DHT22;6174;49.058;8.524;2022-08-19T08:34:00;23.10;94.80
12223;DHT22;6174;49.058;8.524;2022-08-19T08:36:27;23.20;94.10
12223;DHT22;6174;49.058;8.524;2022-08-19T08:38:55;23.20;94.10
12223;DHT22;6174;49.058;8.524;2022-08-19T08:41:28;23.20;93.80
12223;DHT22;6174;49.058;8.524;2022-08-19T08:43:57;23.30;93.80
12223;DHT22;6174;49.058;8.524;2022-08-19T08:46:29;23.40;93.10
12223;DHT22;6174;49.058;8.524;2022-08-19T08:49:01;23.40;92.50
12223;DHT22;6174;49.058;8.524;2022-08-19T08:51:39;23.40;92.60
12223;DHT22;6174;49.058;8.524;2022-08-19T08:54:12;23.40;93.80
12223;DHT22;6174;49.058;8.524;2022-08-19T08:56:40;23.60;92.50
12223;DHT22;6174;49.058;8.524;2022-08-19T08:59:15;23.70;92.90
12223;DHT22;6174;49.058;8.524;2022-08-19T09:01:43;23.70;92.10
12223;DHT22;6174;49.058;8.524;2022-08-19T09:04:12;23.80;92.00
12223;DHT22;6174;49.058;8.524;2022-08-19T09:06:46;23.90;91.20
12223;DHT22;6174;49.058;8.524;2022-08-19T09:09:18;24.00;90.60
12223;DHT22;6174;49.058;8.524;2022-08-19T09:11:58;24.10;91.20
12223;DHT22;6174;49.058;8.524;2022-08-19T09:14:37;24.20;90.30
12223;DHT22;6174;49.058;8.524;2022-08-19T09:17:08;24.20;90.90
12223;DHT22;6174;49.058;8.524;2022-08-19T09:19:35;24.20;90.10
12223;DHT22;6174;49.058;8.524;2022-08-19T09:22:02;24.30;91.00
12223;DHT22;6174;49.058;8.524;2022-08-19T09:24:32;24.40;88.80
12223;DHT22;6174;49.058;8.524;2022-08-19T09:26:58;24.50;88.40
12223;DHT22;6174;49.058;8.524;2022-08-19T09:29:25;24.60;87.90
12223;DHT22;6174;49.058;8.524;2022-08-19T09:31:52;24.80;86.20
12223;DHT22;6174;49.058;8.524;2022-08-19T09:34:19;24.80;86.90
12223;DHT22;6174;49.058;8.524;2022-08-19T09:36:45;24.90;86.90
12223;DHT22;6174;49.058;8.524;2022-08-19T09:39:12;25.00;85.50
12223;DHT22;6174;49.058;8.524;2022-08-19T09:41:40;25.10;83.50
12223;DHT22;6174;49.058;8.524;2022-08-19T09:44:07;25.20;83.90
12223;DHT22;6174;49.058;8.524;2022-08-19T09:46:34;25.20;82.90
12223;DHT22;6174;49.058;8.524;2022-08-19T09:49:01;25.20;81.40
12223;DHT22;6174;49.058;8.524;2022-08-19T09:51:29;25.10;80.60
12223;DHT22;6174;49.058;8.524;2022-08-19T09:54:00;25.00;80.80
12223;DHT22;6174;49.058;8.524;2022-08-19T09:56:27;25.00;81.80
12223;DHT22;6174;49.058;8.524;2022-08-19T09:58:57;25.00;81.50
12223;DHT22;6174;49.058;8.524;2022-08-19T10:01:26;25.10;81.40
12223;DHT22;6174;49.058;8.524;2022-08-19T10:03:55;25.20;78.10
12223;DHT22;6174;49.058;8.524;2022-08-19T10:06:24;25.30;78.80
12223;DHT22;6174;49.058;8.524;2022-08-19T10:08:52;25.40;79.70
12223;DHT22;6174;49.058;8.524;2022-08-19T10:11:19;25.50;78.60
12223;DHT22;6174;49.058;8.524;2022-08-19T10:13:46;25.40;78.90
12223;DHT22;6174;49.058;8.524;2022-08-19T10:16:17;25.40;80.60
12223;DHT22;6174;49.058;8.524;2022-08-19T10:18:45;25.50;79.50
12223;DHT22;6174;49.058;8.524;2022-08-19T10:21:15;25.60;77.20
12223;DHT22;6174;49.058;8.524;2022-08-19T10:23:44;25.60;78.00
12223;DHT22;6174;49.058;8.524;2022-08-19T10:26:13;25.70;75.90
12223;DHT22;6174;49.058;8.524;2022-08-19T10:28:40;25.80;75.00
12223;DHT22;6174;49.058;8.524;2022-08-19T10:31:10;25.80;76.10
12223;DHT22;6174;49.058;8.524;2022-08-19T10:33:39;25.90;76.60
12223;DHT22;6174;49.058;8.524;2022-08-19T10:36:09;26.00;77.10
12223;DHT22;6174;49.058;8.524;2022-08-19T10:38:36;26.10;76.50
12223;DHT22;6174;49.058;8.524;2022-08-19T10:41:08;26.10;75.90
12223;DHT22;6174;49.058;8.524;2022-08-19T10:43:35;26.20;73.40
12223;DHT22;6174;49.058;8.524;2022-08-19T10:46:04;26.10;73.60
12223;DHT22;6174;49.058;8.524;2022-08-19T10:48:31;26.10;74.20
12223;DHT22;6174;49.058;8.524;2022-08-19T10:50:59;26.00;74.10
12223;DHT22;6174;49.058;8.524;2022-08-19T10:53:44;26.00;72.00
12223;DHT22;6174;49.058;8.524;2022-08-19T10:56:11;26.00;72.20
12223;DHT22;6174;49.058;8.524;2022-08-19T10:58:55;26.10;74.20
12223;DHT22;6174;49.058;8.524;2022-08-19T11:01:23;26.10;71.10
12223;DHT22;6174;49.058;8.524;2022-08-19T11:03:51;26.10;72.40
12223;DHT22;6174;49.058;8.524;2022-08-19T11:06:19;26.20;71.20
12223;DHT22;6174;49.058;8.524;2022-08-19T11:08:46;26.20;68.10
12223;DHT22;6174;49.058;8.524;2022-08-19T11:11:13;26.20;71.00
12223;DHT22;6174;49.058;8.524;2022-08-19T11:13:41;26.30;70.70
12223;DHT22;6174;49.058;8.524;2022-08-19T11:16:13;26.30;71.10
12223;DHT22;6174;49.058;8.524;2022-08-19T11:18:42;26.40;72.50
12223;DHT22;6174;49.058;8.524;2022-08-19T11:21:12;26.40;70.20
12223;DHT22;6174;49.058;8.524;2022-08-19T11:23:41;26.30;69.00
12223;DHT22;6174;49.058;8.524;2022-08-19T11:26:08;26.30;69.40
12223;DHT22;6174;49.058;8.524;2022-08-19T11:28:35;26.30;69.90
12223;DHT22;6174;49.058;8.524;2022-08-19T11:31:12;26.40;68.70
12223;DHT22;6174;49.058;8.524;2022-08-19T11:33:51;26.60;66.50
12223;DHT22;6174;49.058;8.524;2022-08-19T11:36:25;26.60;65.90
12223;DHT22;6174;49.058;8.524;2022-08-19T11:38:58;26.70;66.50
12223;DHT22;6174;49.058;8.524;2022-08-19T11:41:36;26.80;65.30
12223;DHT22;6174;49.058;8.524;2022-08-19T11:44:05;26.90;65.80
12223;DHT22;6174;49.058;8.524;2022-08-19T11:46:43;26.90;65.90
12223;DHT22;6174;49.058;8.524;2022-08-19T11:49:16;27.00;65.00
12223;DHT22;6174;49.058;8.524;2022-08-19T11:51:55;27.20;65.10
12223;DHT22;6174;49.058;8.524;2022-08-19T11:54:30;27.40;63.50
12223;DHT22;6174;49.058;8.524;2022-08-19T11:57:15;27.40;63.30
12223;DHT22;6174;49.058;8.524;2022-08-19T12:05:48;27.10;63.60
12223;DHT22;6174;49.058;8.524;2022-08-19T12:08:33;27.00;64.20
12223;DHT22;6174;49.058;8.524;2022-08-19T12:11:05;26.90;62.80
12223;DHT22;6174;49.058;8.524;2022-08-19T12:16:25;26.90;65.00
12223;DHT22;6174;49.058;8.524;2022-08-19T12:18:54;26.80;64.20
12223;DHT22;6174;49.058;8.524;2022-08-19T12:21:30;26.80;65.20
12223;DHT22;6174;49.058;8.524;2022-08-19T12:24:07;26.80;63.80
12223;DHT22;6174;49.058;8.524;2022-08-19T12:36:12;26.60;65.00
12223;DHT22;6174;49.058;8.524;2022-08-19T12:38:43;26.60;65.00
12223;DHT22;6174;49.058;8.524;2022-08-19T12:41:19;26.60;65.90
12223;DHT22;6174;49.058;8.524;2022-08-19T12:44:07;26.50;66.10
12223;DHT22;6174;49.058;8.524;2022-08-19T12:47:25;26.50;64.90
12223;DHT22;6174;49.058;8.524;2022-08-19T12:53:41;26.40;66.40
12223;DHT22;6174;49.058;8.524;2022-08-19T12:57:30;26.50;64.80
12223;DHT22;6174;49.058;8.524;2022-08-19T12:59:45;26.50;63.70
12223;DHT22;6174;49.058;8.524;2022-08-19T13:02:21;26.60;63.10
12223;DHT22;6174;49.058;8.524;2022-08-19T13:04:51;26.90;62.50
12223;DHT22;6174;49.058;8.524;2022-08-19T13:07:33;27.00;61.60
12223;DHT22;6174;49.058;8.524;2022-08-19T13:10:11;27.30;61.00
12223;DHT22;6174;49.058;8.524;2022-08-19T13:12:39;27.30;60.50
12223;DHT22;6174;49.058;8.524;2022-08-19T13:15:32;27.30;60.70
12223;DHT22;6174;49.058;8.524;2022-08-19T13:21:08;27.00;61.50
12223;DHT22;6174;49.058;8.524;2022-08-19T13:23:41;26.90;61.00
12223;DHT22;6174;49.058;8.524;2022-08-19T13:33:28;26.80;62.20
12223;DHT22;6174;49.058;8.524;2022-08-19T13:35:57;26.60;62.70
12223;DHT22;6174;49.058;8.524;2022-08-19T13:38:26;26.60;61.40
12223;DHT22;6174;49.058;8.524;2022-08-19T13:40:54;26.70;61.30
12223;DHT22;6174;49.058;8.524;2022-08-19T13:43:25;26.70;61.70
12223;DHT22;6174;49.058;8.524;2022-08-19T13:45:53;26.70;61.30
12223;DHT22;6174;49.058;8.524;2022-08-19T13:48:22;26.70;61.30
12223;DHT22;6174;49.058;8.524;2022-08-19T13:50:51;26.70;61.90
12223;DHT22;6174;49.058;8.524;2022-08-19T13:53:18;26.90;62.20
12223;DHT22;6174;49.058;8.524;2022-08-19T13:55:44;27.00;62.50
12223;DHT22;6174;49.058;8.524;2022-08-19T13:58:12;27.10;61.40
12223;DHT22;6174;49.058;8.524;2022-08-19T14:00:41;27.20;61.80
12223;DHT22;6174;49.058;8.524;2022-08-19T14:03:09;27.30;60.10
12223;DHT22;6174;49.058;8.524;2022-08-19T14:05:37;27.40;59.40
12223;DHT22;6174;49.058;8.524;2022-08-19T14:08:05;27.40;59.50
12223;DHT22;6174;49.058;8.524;2022-08-19T14:10:32;27.50;60.10
12223;DHT22;6174;49.058;8.524;2022-08-19T14:13:02;27.80;55.40
12223;DHT22;6174;49.058;8.524;2022-08-19T14:15:29;27.80;54.30
12223;DHT22;6174;49.058;8.524;2022-08-19T14:17:56;27.90;54.50
12223;DHT22;6174;49.058;8.524;2022-08-19T14:20:23;27.90;54.10
12223;DHT22;6174;49.058;8.524;2022-08-19T14:22:50;28.00;54.30
12223;DHT22;6174;49.058;8.524;2022-08-19T14:25:21;28.00;55.60
12223;DHT22;6174;49.058;8.524;2022-08-19T14:27:48;27.90;55.90
12223;DHT22;6174;49.058;8.524;2022-08-19T14:30:17;27.90;53.90
12223;DHT22;6174;49.058;8.524;2022-08-19T14:32:46;28.00;54.40
12223;DHT22;6174;49.058;8.524;2022-08-19T14:35:14;27.90;53.50
12223;DHT22;6174;49.058;8.524;2022-08-19T14:37:42;27.90;54.10
12223;DHT22;6174;49.058;8.524;2022-08-19T14:40:10;27.90;53.50
12223;DHT22;6174;49.058;8.524;2022-08-19T14:42:39;27.90;54.30
12223;DHT22;6174;49.058;8.524;2022-08-19T14:45:07;27.90;53.60
12223;DHT22;6174;49.058;8.524;2022-08-19T14:47:34;27.90;54.10
12223;DHT22;6174;49.058;8.524;2022-08-19T14:50:01;27.80;54.10
12223;DHT22;6174;49.058;8.524;2022-08-19T14:52:28;27.80;53.00
12223;DHT22;6174;49.058;8.524;2022-08-19T14:54:54;27.80;53.50
12223;DHT22;6174;49.058;8.524;2022-08-19T14:57:21;27.80;53.90
12223;DHT22;6174;49.058;8.524;2022-08-19T14:59:49;27.90;53.90
12223;DHT22;6174;49.058;8.524;2022-08-19T15:02:16;27.80;55.30
12223;DHT22;6174;49.058;8.524;2022-08-19T15:04:43;27.70;54.40
12223;DHT22;6174;49.058;8.524;2022-08-19T15:07:10;27.80;53.70
12223;DHT22;6174;49.058;8.524;2022-08-19T15:09:37;28.00;52.90
12223;DHT22;6174;49.058;8.524;2022-08-19T15:12:04;28.00;52.80
12223;DHT22;6174;49.058;8.524;2022-08-19T15:14:31;28.00;52.70
12223;DHT22;6174;49.058;8.524;2022-08-19T15:17:01;28.00;54.60
12223;DHT22;6174;49.058;8.524;2022-08-19T15:19:29;28.00;53.90
12223;DHT22;6174;49.058;8.524;2022-08-19T15:21:56;28.00;53.80
12223;DHT22;6174;49.058;8.524;2022-08-19T15:24:23;28.00;54.00
12223;DHT22;6174;49.058;8.524;2022-08-19T15:26:51;28.10;53.90
12223;DHT22;6174;49.058;8.524;2022-08-19T15:29:18;28.10;53.60
12223;DHT22;6174;49.058;8.524;2022-08-19T15:31:45;28.10;52.90
12223;DHT22;6174;49.058;8.524;2022-08-19T15:34:13;28.00;53.10
12223;DHT22;6174;49.058;8.524;2022-08-19T15:36:40;28.00;53.20
12223;DHT22;6174;49.058;8.524;2022-08-19T15:39:07;28.00;53.30
12223;DHT22;6174;49.058;8.524;2022-08-19T15:41:36;28.00;52.70
12223;DHT22;6174;49.058;8.524;2022-08-19T15:44:09;28.00;52.70
12223;DHT22;6174;49.058;8.524;2022-08-19T15:46:39;27.90;52.60
12223;DHT22;6174;49.058;8.524;2022-08-19T15:49:06;28.00;53.00
12223;DHT22;6174;49.058;8.524;2022-08-19T15:51:35;27.90;53.00
12223;DHT22;6174;49.058;8.524;2022-08-19T15:54:05;27.90;53.40
12223;DHT22;6174;49.058;8.524;2022-08-19T15:56:32;27.80;53.30
12223;DHT22;6174;49.058;8.524;2022-08-19T15:59:32;27.80;53.20
12223;DHT22;6174;49.058;8.524;2022-08-19T16:02:19;27.70;53.60
12223;DHT22;6174;49.058;8.524;2022-08-19T16:05:06;27.70;53.50
12223;DHT22;6174;49.058;8.524;2022-08-19T16:07:51;27.70;53.40
12223;DHT22;6174;49.058;8.524;2022-08-19T16:10:19;27.60;53.90
12223;DHT22;6174;49.058;8.524;2022-08-19T16:12:46;27.60;54.50
12223;DHT22;6174;49.058;8.524;2022-08-19T16:15:13;27.50;55.80
12223;DHT22;6174;49.058;8.524;2022-08-19T16:17:40;27.40;54.40
12223;DHT22;6174;49.058;8.524;2022-08-19T16:20:08;27.40;55.30
12223;DHT22;6174;49.058;8.524;2022-08-19T16:22:36;27.40;55.20
12223;DHT22;6174;49.058;8.524;2022-08-19T16:25:06;27.40;55.70
12223;DHT22;6174;49.058;8.524;2022-08-19T16:27:34;27.40;55.50
12223;DHT22;6174;49.058;8.524;2022-08-19T16:30:02;27.40;57.00
12223;DHT22;6174;49.058;8.524;2022-08-19T16:32:29;27.30;56.30
12223;DHT22;6174;49.058;8.524;2022-08-19T16:34:56;27.30;56.40
12223;DHT22;6174;49.058;8.524;2022-08-19T16:37:23;27.30;56.30
12223;DHT22;6174;49.058;8.524;2022-08-19T16:39:50;27.30;55.90
12223;DHT22;6174;49.058;8.524;2022-08-19T16:42:18;27.30;55.30
12223;DHT22;6174;49.058;8.524;2022-08-19T16:44:45;27.40;55.00
12223;DHT22;6174;49.058;8.524;2022-08-19T16:47:12;27.40;55.60
12223;DHT22;6174;49.058;8.524;2022-08-19T16:49:41;27.40;56.70
12223;DHT22;6174;49.058;8.524;2022-08-19T16:52:08;27.40;55.10
12223;DHT22;6174;49.058;8.524;2022-08-19T16:54:35;27.30;54.90
12223;DHT22;6174;49.058;8.524;2022-08-19T16:57:03;27.40;56.00
12223;DHT22;6174;49.058;8.524;2022-08-19T16:59:32;27.30;56.00
12223;DHT22;6174;49.058;8.524;2022-08-19T17:01:59;27.30;56.00
12223;DHT22;6174;49.058;8.524;2022-08-19T17:04:26;27.30;54.70
12223;DHT22;6174;49.058;8.524;2022-08-19T17:06:53;27.30;55.20
12223;DHT22;6174;49.058;8.524;2022-08-19T17:09:20;27.30;54.70
12223;DHT22;6174;49.058;8.524;2022-08-19T17:11:47;27.30;54.50
12223;DHT22;6174;49.058;8.524;2022-08-19T17:14:14;27.30;56.00
12223;DHT22;6174;49.058;8.524;2022-08-19T17:16:44;27.30;55.30
12223;DHT22;6174;49.058;8.524;2022-08-19T17:19:10;27.10;56.00
12223;DHT22;6174;49.058;8.524;2022-08-19T17:21:37;27.10;56.60
12223;DHT22;6174;49.058;8.524;2022-08-19T17:24:06;27.10;58.00
12223;DHT22;6174;49.058;8.524;2022-08-19T17:26:34;27.00;58.10
12223;DHT22;6174;49.058;8.524;2022-08-19T17:29:01;27.00;58.30
12223;DHT22;6174;49.058;8.524;2022-08-19T17:31:30;26.80;57.60
12223;DHT22;6174;49.058;8.524;2022-08-19T17:33:59;26.80;57.60
12223;DHT22;6174;49.058;8.524;2022-08-19T17:36:27;26.70;57.30